sensor_id;sensor_type;location;lat;lon;timestamp;temperature;humidity
61153;DHT22;47030;50.732;4.286;2022-07-23T00:00:14;16.10;99.90
61153;DHT22;47030;50.732;4.286;2022-07-23T00:02:40;16.00;99.90
61153;DHT22;47030;50.732;4.286;2022-07-23T00:05:06;16.10;99.90
61153;DHT22;47030;50.732;4.286;2022-07-23T00:07:35;16.00;99.90
61153;DHT22;47030;50.732;4.286;2022-07-23T00:10:01;15.90;99.90
61153;DHT22;47030;50.732;4.286;2022-07-23T00:12:26;15.80;99.90
61153;DHT22;47030;50.732;4.286;2022-07-23T00:14:52;15.80;99.90
61153;DHT22;47030;50.732;4.286;2022-07-23T00:17:18;15.80;99.90
61153;DHT22;47030;50.732;4.286;2022-07-23T00:19:44;15.80;99.90
61153;DHT22;47030;50.732;4.286;2022-07-23T00:22:10;15.80;99.90
61153;DHT22;47030;50.732;4.286;2022-07-23T00:24:35;15.80;99.90
61153;DHT22;47030;50.732;4.286;2022-07-23T00:27:01;15.90;99.90
61153;DHT22;47030;50.732;4.286;2022-07-23T00:29:27;15.90;99.90
61153;DHT22;47030;50.732;4.286;2022-07-23T00:31:53;15.90;99.90
61153;DHT22;47030;50.732;4.286;2022-07-23T00:34:18;15.80;99.90
61153;DHT22;47030;50.732;4.286;2022-07-23T00:36:44;15.80;99.90
61153;DHT22;47030;50.732;4.286;2022-07-23T00:39:10;15.70;99.90
61153;DHT22;47030;50.732;4.286;2022-07-23T00:41:36;15.60;99.90
61153;DHT22;47030;50.732;4.286;2022-07-23T00:44:22;15.50;99.90
61153;DHT22;47030;50.732;4.286;2022-07-23T00:46:50;15.50;99.90
61153;DHT22;47030;50.732;4.286;2022-07-23T00:49:18;15.50;99.90
61153;DHT22;47030;50.732;4.286;2022-07-23T00:51:45;15.50;99.90
61153;DHT22;47030;50.732;4.286;2022-07-23T00:54:11;15.50;99.90
61153;DHT22;47030;50.732;4.286;2022-07-23T00:56:37;15.50;99.90
61153;DHT22;47030;50.732;4.286;2022-07-23T00:59:03;15.50;99.90
61153;DHT22;47030;50.732;4.286;2022-07-23T01:01:30;15.40;99.90
61153;DHT22;47030;50.732;4.286;2022-07-23T01:03:56;15.50;99.90
61153;DHT22;47030;50.732;4.286;2022-07-23T01:06:22;15.50;99.90
61153;DHT22;47030;50.732;4.286;2022-07-23T01:08:48;15.60;99.90
61153;DHT22;47030;50.732;4.286;2022-07-23T01:11:13;15.60;99.90
61153;DHT22;47030;50.732;4.286;2022-07-23T01:13:43;15.60;99.90
61153;DHT22;47030;50.732;4.286;2022-07-23T01:16:08;15.60;99.90
61153;DHT22;47030;50.732;4.286;2022-07-23T01:18:34;15.60;99.90
61153;DHT22;47030;50.732;4.286;2022-07-23T01:21:00;15.50;99.90
61153;DHT22;47030;50.732;4.286;2022-07-23T01:23:26;15.40;99.90
61153;DHT22;47030;50.732;4.286;2022-07-23T01:25:53;15.40;99.90
61153;DHT22;47030;50.732;4.286;2022-07-23T01:28:19;15.30;99.90
61153;DHT22;47030;50.732;4.286;2022-07-23T01:30:45;15.30;99.90
61153;DHT22;47030;50.732;4.286;2022-07-23T01:33:14;15.30;99.90
61153;DHT22;47030;50.732;4.286;2022-07-23T01:35:40;15.30;99.90
61153;DHT22;47030;50.732;4.286;2022-07-23T01:38:06;15.20;99.90
61153;DHT22;47030;50.732;4.286;2022-07-23T01:40:32;15.30;99.90
61153;DHT22;47030;50.732;4.286;2022-07-23T01:42:58;15.30;99.90
61153;DHT22;47030;50.732;4.286;2022-07-23T01:45:23;15.40;99.90
61153;DHT22;47030;50.732;4.286;2022-07-23T01:47:49;15.40;99.90
61153;DHT22;47030;50.732;4.286;2022-07-23T01:50:15;15.40;99.90
61153;DHT22;47030;50.732;4.286;2022-07-23T01:52:41;15.40;99.90
61153;DHT22;47030;50.732;4.286;2022-07-23T01:55:08;15.30;99.90
61153;DHT22;47030;50.732;4.286;2022-07-23T01:57:34;15.30;99.90
61153;DHT22;47030;50.732;4.286;2022-07-23T02:00:00;15.30;99.90
61153;DHT22;47030;50.732;4.286;2022-07-23T02:02:26;15.30;99.90
61153;DHT22;47030;50.732;4.286;2022-07-23T02:04:51;15.20;99.90
61153;DHT22;47030;50.732;4.286;2022-07-23T02:07:17;15.20;99.90
61153;DHT22;47030;50.732;4.286;2022-07-23T02:09:43;15.20;99.90
61153;DHT22;47030;50.732;4.286;2022-07-23T02:12:09;15.10;99.90
61153;DHT22;47030;50.732;4.286;2022-07-23T02:14:35;15.10;99.90
61153;DHT22;47030;50.732;4.286;2022-07-23T02:17:00;15.10;99.90
61153;DHT22;47030;50.732;4.286;2022-07-23T02:19:26;15.10;99.90
61153;DHT22;47030;50.732;4.286;2022-07-23T02:21:52;15.10;99.90
61153;DHT22;47030;50.732;4.286;2022-07-23T02:24:19;15.10;99.90
61153;DHT22;47030;50.732;4.286;2022-07-23T02:26:45;15.00;99.90
61153;DHT22;47030;50.732;4.286;2022-07-23T02:29:11;15.00;99.90
61153;DHT22;47030;50.732;4.286;2022-07-23T02:31:38;15.00;99.90
61153;DHT22;47030;50.732;4.286;2022-07-23T02:34:04;14.90;99.90
61153;DHT22;47030;50.732;4.286;2022-07-23T02:36:30;14.90;99.90
61153;DHT22;47030;50.732;4.286;2022-07-23T02:38:56;14.90;99.90
61153;DHT22;47030;50.732;4.286;2022-07-23T02:41:22;14.80;99.90
61153;DHT22;47030;50.732;4.286;2022-07-23T02:43:48;14.70;99.90
61153;DHT22;47030;50.732;4.286;2022-07-23T02:46:13;14.70;99.90
61153;DHT22;47030;50.732;4.286;2022-07-23T02:48:39;14.80;99.90
61153;DHT22;47030;50.732;4.286;2022-07-23T02:51:05;14.80;99.90
61153;DHT22;47030;50.732;4.286;2022-07-23T02:53:31;14.80;99.90
61153;DHT22;47030;50.732;4.286;2022-07-23T02:55:57;14.60;99.90
61153;DHT22;47030;50.732;4.286;2022-07-23T02:58:22;14.60;99.90
61153;DHT22;47030;50.732;4.286;2022-07-23T03:00:48;14.70;99.90
61153;DHT22;47030;50.732;4.286;2022-07-23T03:03:14;14.60;99.90
61153;DHT22;47030;50.732;4.286;2022-07-23T03:05:40;14.60;99.90
61153;DHT22;47030;50.732;4.286;2022-07-23T03:08:06;14.50;99.90
61153;DHT22;47030;50.732;4.286;2022-07-23T03:10:32;14.50;99.90
61153;DHT22;47030;50.732;4.286;2022-07-23T03:12:58;14.60;99.90
61153;DHT22;47030;50.732;4.286;2022-07-23T03:15:24;14.60;99.90
61153;DHT22;47030;50.732;4.286;2022-07-23T03:17:49;14.60;99.90
61153;DHT22;47030;50.732;4.286;2022-07-23T03:20:15;14.60;99.90
61153;DHT22;47030;50.732;4.286;2022-07-23T03:22:41;14.50;99.90
61153;DHT22;47030;50.732;4.286;2022-07-23T03:25:07;14.50;99.90
61153;DHT22;47030;50.732;4.286;2022-07-23T03:27:33;14.40;99.90
61153;DHT22;47030;50.732;4.286;2022-07-23T03:30:00;14.50;99.90
61153;DHT22;47030;50.732;4.286;2022-07-23T03:32:26;14.50;99.90
61153;DHT22;47030;50.732;4.286;2022-07-23T03:34:53;14.50;99.90
61153;DHT22;47030;50.732;4.286;2022-07-23T03:37:19;14.60;99.90
61153;DHT22;47030;50.732;4.286;2022-07-23T03:39:45;14.60;99.90
61153;DHT22;47030;50.732;4.286;2022-07-23T03:42:11;14.70;99.90
61153;DHT22;47030;50.732;4.286;2022-07-23T03:44:36;14.60;99.90
61153;DHT22;47030;50.732;4.286;2022-07-23T03:47:04;14.60;99.90
61153;DHT22;47030;50.732;4.286;2022-07-23T03:49:30;14.70;99.90
61153;DHT22;47030;50.732;4.286;2022-07-23T03:51:56;14.60;99.90
61153;DHT22;47030;50.732;4.286;2022-07-23T03:54:21;14.60;99.90
61153;DHT22;47030;50.732;4.286;2022-07-23T03:56:47;14.60;99.90
61153;DHT22;47030;50.732;4.286;2022-07-23T03:59:13;14.70;99.90
61153;DHT22;47030;50.732;4.286;2022-07-23T04:01:39;14.80;99.90
61153;DHT22;47030;50.732;4.286;2022-07-23T04:04:04;14.90;99.90
61153;DHT22;47030;50.732;4.286;2022-07-23T04:06:30;14.90;99.90
61153;DHT22;47030;50.732;4.286;2022-07-23T04:08:57;15.10;99.90
61153;DHT22;47030;50.732;4.286;2022-07-23T04:11:23;15.20;99.90
61153;DHT22;47030;50.732;4.286;2022-07-23T04:13:49;15.20;99.90
61153;DHT22;47030;50.732;4.286;2022-07-23T04:16:14;15.30;99.90
61153;DHT22;47030;50.732;4.286;2022-07-23T04:18:40;15.40;99.90
61153;DHT22;47030;50.732;4.286;2022-07-23T04:21:06;15.50;99.90
61153;DHT22;47030;50.732;4.286;2022-07-23T04:23:32;15.50;99.90
61153;DHT22;47030;50.732;4.286;2022-07-23T04:25:57;15.50;99.90
61153;DHT22;47030;50.732;4.286;2022-07-23T04:28:23;15.70;99.90
61153;DHT22;47030;50.732;4.286;2022-07-23T04:30:49;15.80;99.90
61153;DHT22;47030;50.732;4.286;2022-07-23T04:33:15;15.90;99.90
61153;DHT22;47030;50.732;4.286;2022-07-23T04:35:41;16.00;99.90
61153;DHT22;47030;50.732;4.286;2022-07-23T04:38:07;16.10;99.90
61153;DHT22;47030;50.732;4.286;2022-07-23T04:40:32;16.20;99.90
61153;DHT22;47030;50.732;4.286;2022-07-23T04:42:58;16.30;99.90
61153;DHT22;47030;50.732;4.286;2022-07-23T04:45:24;16.60;99.90
61153;DHT22;47030;50.732;4.286;2022-07-23T04:47:50;16.80;99.90
61153;DHT22;47030;50.732;4.286;2022-07-23T04:50:16;17.20;99.90
61153;DHT22;47030;50.732;4.286;2022-07-23T04:52:49;17.60;99.90
61153;DHT22;47030;50.732;4.286;2022-07-23T04:55:15;17.70;99.40
61153;DHT22;47030;50.732;4.286;2022-07-23T04:57:41;17.60;98.90
61153;DHT22;47030;50.732;4.286;2022-07-23T05:00:07;17.50;99.10
61153;DHT22;47030;50.732;4.286;2022-07-23T05:02:34;17.50;99.10
61153;DHT22;47030;50.732;4.286;2022-07-23T05:04:59;17.70;99.10
61153;DHT22;47030;50.732;4.286;2022-07-23T05:07:25;18.00;98.90
61153;DHT22;47030;50.732;4.286;2022-07-23T05:09:51;18.00;98.40
61153;DHT22;47030;50.732;4.286;2022-07-23T05:12:17;18.70;97.50
61153;DHT22;47030;50.732;4.286;2022-07-23T05:14:42;19.70;96.00
61153;DHT22;47030;50.732;4.286;2022-07-23T05:17:08;20.00;94.10
61153;DHT22;47030;50.732;4.286;2022-07-23T05:19:34;19.80;94.20
61153;DHT22;47030;50.732;4.286;2022-07-23T05:22:00;19.50;94.60
61153;DHT22;47030;50.732;4.286;2022-07-23T05:24:26;19.30;95.10
61153;DHT22;47030;50.732;4.286;2022-07-23T05:26:52;19.00;95.50
61153;DHT22;47030;50.732;4.286;2022-07-23T05:29:18;18.80;96.00
61153;DHT22;47030;50.732;4.286;2022-07-23T05:31:44;18.70;96.10
61153;DHT22;47030;50.732;4.286;2022-07-23T05:34:09;18.70;96.30
61153;DHT22;47030;50.732;4.286;2022-07-23T05:36:35;18.70;96.30
61153;DHT22;47030;50.732;4.286;2022-07-23T05:39:01;18.80;96.40
61153;DHT22;47030;50.732;4.286;2022-07-23T05:41:27;19.10;96.80
61153;DHT22;47030;50.732;4.286;2022-07-23T05:43:53;20.60;94.00
61153;DHT22;47030;50.732;4.286;2022-07-23T05:46:19;22.50;90.90
61153;DHT22;47030;50.732;4.286;2022-07-23T05:48:44;24.20;85.10
61153;DHT22;47030;50.732;4.286;2022-07-23T05:51:19;25.60;78.90
61153;DHT22;47030;50.732;4.286;2022-07-23T05:53:45;26.60;74.40
61153;DHT22;47030;50.732;4.286;2022-07-23T05:56:11;27.30;70.60
61153;DHT22;47030;50.732;4.286;2022-07-23T05:58:36;28.20;68.10
61153;DHT22;47030;50.732;4.286;2022-07-23T06:01:02;29.10;64.80
61153;DHT22;47030;50.732;4.286;2022-07-23T06:03:28;29.90;62.10
61153;DHT22;47030;50.732;4.286;2022-07-23T06:05:53;30.50;60.80
61153;DHT22;47030;50.732;4.286;2022-07-23T06:08:19;31.10;58.70
61153;DHT22;47030;50.732;4.286;2022-07-23T06:10:45;31.70;56.20
61153;DHT22;47030;50.732;4.286;2022-07-23T06:13:10;32.20;54.90
61153;DHT22;47030;50.732;4.286;2022-07-23T06:15:36;32.70;53.00
61153;DHT22;47030;50.732;4.286;2022-07-23T06:18:02;33.20;51.40
61153;DHT22;47030;50.732;4.286;2022-07-23T06:20:28;33.40;50.90
61153;DHT22;47030;50.732;4.286;2022-07-23T06:22:53;32.60;51.50
61153;DHT22;47030;50.732;4.286;2022-07-23T06:25:19;31.90;52.30
61153;DHT22;47030;50.732;4.286;2022-07-23T06:27:46;30.70;55.40
61153;DHT22;47030;50.732;4.286;2022-07-23T06:30:12;30.00;56.80
61153;DHT22;47030;50.732;4.286;2022-07-23T06:32:38;30.60;56.80
61153;DHT22;47030;50.732;4.286;2022-07-23T06:35:04;30.50;56.80
61153;DHT22;47030;50.732;4.286;2022-07-23T06:37:30;29.70;57.60
61153;DHT22;47030;50.732;4.286;2022-07-23T06:39:56;28.70;59.80
61153;DHT22;47030;50.732;4.286;2022-07-23T06:42:21;27.90;62.50
61153;DHT22;47030;50.732;4.286;2022-07-23T06:44:47;28.10;63.30
61153;DHT22;47030;50.732;4.286;2022-07-23T06:47:13;28.50;62.80
61153;DHT22;47030;50.732;4.286;2022-07-23T06:49:39;30.30;57.10
61153;DHT22;47030;50.732;4.286;2022-07-23T06:52:10;32.30;53.90
61153;DHT22;47030;50.732;4.286;2022-07-23T06:54:35;33.90;49.70
61153;DHT22;47030;50.732;4.286;2022-07-23T06:57:01;35.20;47.50
61153;DHT22;47030;50.732;4.286;2022-07-23T06:59:27;36.00;45.80
61153;DHT22;47030;50.732;4.286;2022-07-23T07:01:53;36.70;44.20
61153;DHT22;47030;50.732;4.286;2022-07-23T07:04:18;37.70;43.20
61153;DHT22;47030;50.732;4.286;2022-07-23T07:06:50;38.00;41.40
61153;DHT22;47030;50.732;4.286;2022-07-23T07:09:18;37.70;42.20
61153;DHT22;47030;50.732;4.286;2022-07-23T07:11:44;36.90;42.40
61153;DHT22;47030;50.732;4.286;2022-07-23T07:14:09;35.50;44.70
61153;DHT22;47030;50.732;4.286;2022-07-23T07:16:35;35.30;46.10
61153;DHT22;47030;50.732;4.286;2022-07-23T07:19:01;36.50;43.30
61153;DHT22;47030;50.732;4.286;2022-07-23T07:21:27;37.40;42.10
61153;DHT22;47030;50.732;4.286;2022-07-23T07:23:52;38.50;40.00
61153;DHT22;47030;50.732;4.286;2022-07-23T07:26:18;39.10;39.30
61153;DHT22;47030;50.732;4.286;2022-07-23T07:28:44;40.00;37.60
61153;DHT22;47030;50.732;4.286;2022-07-23T07:31:09;40.20;37.20
61153;DHT22;47030;50.732;4.286;2022-07-23T07:33:35;40.10;37.60
61153;DHT22;47030;50.732;4.286;2022-07-23T07:36:01;40.50;36.40
61153;DHT22;47030;50.732;4.286;2022-07-23T07:38:27;40.80;36.70
61153;DHT22;47030;50.732;4.286;2022-07-23T07:40:52;41.30;36.40
61153;DHT22;47030;50.732;4.286;2022-07-23T07:43:18;41.70;35.70
61153;DHT22;47030;50.732;4.286;2022-07-23T07:45:44;41.20;36.10
61153;DHT22;47030;50.732;4.286;2022-07-23T07:48:09;40.90;35.80
61153;DHT22;47030;50.732;4.286;2022-07-23T07:50:35;40.80;36.30
61153;DHT22;47030;50.732;4.286;2022-07-23T07:53:01;41.00;35.90
61153;DHT22;47030;50.732;4.286;2022-07-23T07:55:26;41.00;35.60
61153;DHT22;47030;50.732;4.286;2022-07-23T07:57:54;41.60;36.10
61153;DHT22;47030;50.732;4.286;2022-07-23T08:00:20;42.00;34.80
61153;DHT22;47030;50.732;4.286;2022-07-23T08:03:03;42.80;33.80
61153;DHT22;47030;50.732;4.286;2022-07-23T08:05:30;43.00;33.60
61153;DHT22;47030;50.732;4.286;2022-07-23T08:07:57;43.20;33.60
61153;DHT22;47030;50.732;4.286;2022-07-23T08:10:24;42.60;33.80
61153;DHT22;47030;50.732;4.286;2022-07-23T08:12:54;43.10;33.20
61153;DHT22;47030;50.732;4.286;2022-07-23T08:15:23;43.70;33.50
61153;DHT22;47030;50.732;4.286;2022-07-23T08:17:49;43.30;32.10
61153;DHT22;47030;50.732;4.286;2022-07-23T08:20:17;43.40;32.00
61153;DHT22;47030;50.732;4.286;2022-07-23T08:22:51;44.00;32.30
61153;DHT22;47030;50.732;4.286;2022-07-23T08:25:29;44.40;32.00
61153;DHT22;47030;50.732;4.286;2022-07-23T08:27:56;44.10;31.80
61153;DHT22;47030;50.732;4.286;2022-07-23T08:30:22;44.20;31.80
61153;DHT22;47030;50.732;4.286;2022-07-23T08:32:59;44.90;31.40
61153;DHT22;47030;50.732;4.286;2022-07-23T08:35:46;45.20;30.50
61153;DHT22;47030;50.732;4.286;2022-07-23T08:38:14;45.70;30.00
61153;DHT22;47030;50.732;4.286;2022-07-23T08:40:45;45.90;29.80
61153;DHT22;47030;50.732;4.286;2022-07-23T08:43:23;46.30;30.00
61153;DHT22;47030;50.732;4.286;2022-07-23T08:45:51;46.30;30.00
61153;DHT22;47030;50.732;4.286;2022-07-23T08:48:22;46.70;29.30
61153;DHT22;47030;50.732;4.286;2022-07-23T08:50:50;46.60;29.10
61153;DHT22;47030;50.732;4.286;2022-07-23T08:53:17;46.50;29.50
61153;DHT22;47030;50.732;4.286;2022-07-23T08:55:48;46.40;29.10
61153;DHT22;47030;50.732;4.286;2022-07-23T08:58:14;46.30;29.10
61153;DHT22;47030;50.732;4.286;2022-07-23T09:00:40;46.20;28.80
61153;DHT22;47030;50.732;4.286;2022-07-23T09:03:06;45.90;29.10
61153;DHT22;47030;50.732;4.286;2022-07-23T09:05:32;45.70;28.60
61153;DHT22;47030;50.732;4.286;2022-07-23T09:08:09;44.90;28.90
61153;DHT22;47030;50.732;4.286;2022-07-23T09:10:55;44.40;30.00
61153;DHT22;47030;50.732;4.286;2022-07-23T09:13:41;44.00;29.80
61153;DHT22;47030;50.732;4.286;2022-07-23T09:16:18;45.10;29.70
61153;DHT22;47030;50.732;4.286;2022-07-23T09:18:55;45.80;29.20
61153;DHT22;47030;50.732;4.286;2022-07-23T09:24:00;45.30;29.60
61153;DHT22;47030;50.732;4.286;2022-07-23T09:34:22;45.30;28.70
61153;DHT22;47030;50.732;4.286;2022-07-23T09:37:12;44.50;30.10
61153;DHT22;47030;50.732;4.286;2022-07-23T09:39:36;44.60;29.70
61153;DHT22;47030;50.732;4.286;2022-07-23T09:42:25;44.80;28.70
61153;DHT22;47030;50.732;4.286;2022-07-23T09:44:56;45.20;29.10
61153;DHT22;47030;50.732;4.286;2022-07-23T09:47:27;44.30;29.10
61153;DHT22;47030;50.732;4.286;2022-07-23T09:50:04;44.40;29.60
61153;DHT22;47030;50.732;4.286;2022-07-23T09:52:50;44.60;29.60
61153;DHT22;47030;50.732;4.286;2022-07-23T09:55:17;44.80;29.70
61153;DHT22;47030;50.732;4.286;2022-07-23T09:57:44;45.10;29.30
61153;DHT22;47030;50.732;4.286;2022-07-23T10:00:19;45.50;28.20
61153;DHT22;47030;50.732;4.286;2022-07-23T10:02:46;45.80;28.50
61153;DHT22;47030;50.732;4.286;2022-07-23T10:05:12;45.40;28.80
61153;DHT22;47030;50.732;4.286;2022-07-23T10:07:40;45.00;28.90
61153;DHT22;47030;50.732;4.286;2022-07-23T10:10:07;45.50;28.90
61153;DHT22;47030;50.732;4.286;2022-07-23T10:12:33;45.30;28.40
61153;DHT22;47030;50.732;4.286;2022-07-23T10:15:14;45.10;28.10
61153;DHT22;47030;50.732;4.286;2022-07-23T10:17:40;44.90;28.80
61153;DHT22;47030;50.732;4.286;2022-07-23T10:20:06;44.80;28.40
61153;DHT22;47030;50.732;4.286;2022-07-23T10:22:35;44.70;28.50
61153;DHT22;47030;50.732;4.286;2022-07-23T10:25:40;44.60;28.40
61153;DHT22;47030;50.732;4.286;2022-07-23T10:28:27;44.10;29.00
61153;DHT22;47030;50.732;4.286;2022-07-23T10:36:56;43.60;29.40
61153;DHT22;47030;50.732;4.286;2022-07-23T10:39:32;43.80;28.30
61153;DHT22;47030;50.732;4.286;2022-07-23T10:42:13;43.50;28.40
61153;DHT22;47030;50.732;4.286;2022-07-23T10:44:43;43.20;28.40
61153;DHT22;47030;50.732;4.286;2022-07-23T10:47:10;43.60;28.40
61153;DHT22;47030;50.732;4.286;2022-07-23T10:49:39;43.10;29.00
61153;DHT22;47030;50.732;4.286;2022-07-23T10:54:47;42.30;28.00
61153;DHT22;47030;50.732;4.286;2022-07-23T10:57:15;41.50;28.80
61153;DHT22;47030;50.732;4.286;2022-07-23T11:02:36;40.80;30.20
61153;DHT22;47030;50.732;4.286;2022-07-23T11:05:07;40.70;30.10
61153;DHT22;47030;50.732;4.286;2022-07-23T11:07:34;40.30;30.40
61153;DHT22;47030;50.732;4.286;2022-07-23T11:10:00;39.40;31.90
61153;DHT22;47030;50.732;4.286;2022-07-23T11:15:05;39.20;32.10
61153;DHT22;47030;50.732;4.286;2022-07-23T11:17:34;39.10;32.40
61153;DHT22;47030;50.732;4.286;2022-07-23T11:25:02;38.80;31.90
61153;DHT22;47030;50.732;4.286;2022-07-23T11:27:38;39.10;31.20
61153;DHT22;47030;50.732;4.286;2022-07-23T11:30:05;39.00;30.70
61153;DHT22;47030;50.732;4.286;2022-07-23T11:32:34;39.00;31.30
61153;DHT22;47030;50.732;4.286;2022-07-23T11:35:06;38.60;32.10
61153;DHT22;47030;50.732;4.286;2022-07-23T11:37:44;38.30;33.30
61153;DHT22;47030;50.732;4.286;2022-07-23T11:40:15;37.80;33.40
61153;DHT22;47030;50.732;4.286;2022-07-23T11:43:11;37.50;34.40
61153;DHT22;47030;50.732;4.286;2022-07-23T11:45:41;36.90;35.00
61153;DHT22;47030;50.732;4.286;2022-07-23T11:48:09;36.40;34.50
61153;DHT22;47030;50.732;4.286;2022-07-23T11:50:35;35.70;37.40
61153;DHT22;47030;50.732;4.286;2022-07-23T11:53:02;35.40;37.00
61153;DHT22;47030;50.732;4.286;2022-07-23T11:55:28;35.40;37.80
61153;DHT22;47030;50.732;4.286;2022-07-23T11:57:54;35.10;37.10
61153;DHT22;47030;50.732;4.286;2022-07-23T12:00:23;34.70;37.30
61153;DHT22;47030;50.732;4.286;2022-07-23T12:02:51;34.20;36.70
61153;DHT22;47030;50.732;4.286;2022-07-23T12:05:27;33.50;37.30
61153;DHT22;47030;50.732;4.286;2022-07-23T12:07:55;33.10;39.20
61153;DHT22;47030;50.732;4.286;2022-07-23T12:10:35;33.00;39.30
61153;DHT22;47030;50.732;4.286;2022-07-23T12:13:07;32.20;41.30
61153;DHT22;47030;50.732;4.286;2022-07-23T12:15:43;31.70;42.00
61153;DHT22;47030;50.732;4.286;2022-07-23T12:18:11;31.60;41.50
61153;DHT22;47030;50.732;4.286;2022-07-23T12:20:46;31.70;41.00
61153;DHT22;47030;50.732;4.286;2022-07-23T12:23:14;31.90;41.30
61153;DHT22;47030;50.732;4.286;2022-07-23T12:25:45;32.30;41.20
61153;DHT22;47030;50.732;4.286;2022-07-23T12:28:15;32.60;41.20
61153;DHT22;47030;50.732;4.286;2022-07-23T12:30:46;32.80;38.90
61153;DHT22;47030;50.732;4.286;2022-07-23T12:33:15;32.70;40.90
61153;DHT22;47030;50.732;4.286;2022-07-23T12:35:46;32.70;40.90
61153;DHT22;47030;50.732;4.286;2022-07-23T12:38:17;32.90;41.30
61153;DHT22;47030;50.732;4.286;2022-07-23T12:40:54;32.90;40.00
61153;DHT22;47030;50.732;4.286;2022-07-23T12:43:27;32.90;40.60
61153;DHT22;47030;50.732;4.286;2022-07-23T12:50:56;32.10;42.00
61153;DHT22;47030;50.732;4.286;2022-07-23T12:53:27;31.80;42.80
61153;DHT22;47030;50.732;4.286;2022-07-23T12:56:03;31.70;42.90
61153;DHT22;47030;50.732;4.286;2022-07-23T12:58:46;31.60;44.40
61153;DHT22;47030;50.732;4.286;2022-07-23T13:04:07;31.60;44.20
61153;DHT22;47030;50.732;4.286;2022-07-23T13:06:35;31.60;41.90
61153;DHT22;47030;50.732;4.286;2022-07-23T13:09:02;31.60;42.70
61153;DHT22;47030;50.732;4.286;2022-07-23T13:11:28;31.50;42.50
61153;DHT22;47030;50.732;4.286;2022-07-23T13:13:54;31.20;41.80
61153;DHT22;47030;50.732;4.286;2022-07-23T13:16:20;31.20;42.00
61153;DHT22;47030;50.732;4.286;2022-07-23T13:18:46;31.20;42.30
61153;DHT22;47030;50.732;4.286;2022-07-23T13:21:12;30.90;43.50
61153;DHT22;47030;50.732;4.286;2022-07-23T13:23:37;30.60;43.50
61153;DHT22;47030;50.732;4.286;2022-07-23T13:26:04;30.60;44.30
61153;DHT22;47030;50.732;4.286;2022-07-23T13:28:29;30.80;43.30
61153;DHT22;47030;50.732;4.286;2022-07-23T13:30:56;30.90;46.30
61153;DHT22;47030;50.732;4.286;2022-07-23T13:33:23;30.90;45.70
61153;DHT22;47030;50.732;4.286;2022-07-23T13:35:50;31.10;45.40
61153;DHT22;47030;50.732;4.286;2022-07-23T13:38:17;31.40;43.30
61153;DHT22;47030;50.732;4.286;2022-07-23T13:40:45;31.50;45.00
61153;DHT22;47030;50.732;4.286;2022-07-23T13:43:14;31.60;44.40
61153;DHT22;47030;50.732;4.286;2022-07-23T13:45:40;31.40;43.80
61153;DHT22;47030;50.732;4.286;2022-07-23T13:48:08;31.30;44.80
61153;DHT22;47030;50.732;4.286;2022-07-23T13:50:35;31.30;43.20
61153;DHT22;47030;50.732;4.286;2022-07-23T13:53:05;31.20;44.00
61153;DHT22;47030;50.732;4.286;2022-07-23T13:55:32;31.00;44.80
61153;DHT22;47030;50.732;4.286;2022-07-23T13:57:59;30.80;45.10
61153;DHT22;47030;50.732;4.286;2022-07-23T14:00:25;30.70;45.10
61153;DHT22;47030;50.732;4.286;2022-07-23T14:02:53;30.70;44.70
61153;DHT22;47030;50.732;4.286;2022-07-23T14:05:20;30.80;45.30
61153;DHT22;47030;50.732;4.286;2022-07-23T14:07:46;30.80;45.50
61153;DHT22;47030;50.732;4.286;2022-07-23T14:10:16;30.50;44.70
61153;DHT22;47030;50.732;4.286;2022-07-23T14:12:41;30.60;45.20
61153;DHT22;47030;50.732;4.286;2022-07-23T14:15:07;30.60;45.70
61153;DHT22;47030;50.732;4.286;2022-07-23T14:17:36;30.80;45.10
61153;DHT22;47030;50.732;4.286;2022-07-23T14:20:03;30.80;46.20
61153;DHT22;47030;50.732;4.286;2022-07-23T14:22:29;30.60;45.50
61153;DHT22;47030;50.732;4.286;2022-07-23T14:24:54;30.60;44.80
61153;DHT22;47030;50.732;4.286;2022-07-23T14:27:23;30.40;45.40
61153;DHT22;47030;50.732;4.286;2022-07-23T14:29:49;30.70;43.90
61153;DHT22;47030;50.732;4.286;2022-07-23T14:32:14;31.10;42.80
61153;DHT22;47030;50.732;4.286;2022-07-23T14:34:40;31.00;43.40
61153;DHT22;47030;50.732;4.286;2022-07-23T14:37:06;31.00;44.80
61153;DHT22;47030;50.732;4.286;2022-07-23T14:39:32;30.80;44.90
61153;DHT22;47030;50.732;4.286;2022-07-23T14:41:58;30.70;45.20
61153;DHT22;47030;50.732;4.286;2022-07-23T14:44:24;30.70;46.10
61153;DHT22;47030;50.732;4.286;2022-07-23T14:46:50;30.60;45.90
61153;DHT22;47030;50.732;4.286;2022-07-23T14:49:16;30.60;45.80
61153;DHT22;47030;50.732;4.286;2022-07-23T14:51:41;30.50;45.00
61153;DHT22;47030;50.732;4.286;2022-07-23T14:54:09;30.50;45.50
61153;DHT22;47030;50.732;4.286;2022-07-23T14:56:34;30.50;45.80
61153;DHT22;47030;50.732;4.286;2022-07-23T14:59:02;30.60;46.60
61153;DHT22;47030;50.732;4.286;2022-07-23T15:01:28;30.70;45.80
61153;DHT22;47030;50.732;4.286;2022-07-23T15:03:54;30.90;45.90
61153;DHT22;47030;50.732;4.286;2022-07-23T15:06:20;30.80;44.20
61153;DHT22;47030;50.732;4.286;2022-07-23T15:08:46;31.10;44.50
61153;DHT22;47030;50.732;4.286;2022-07-23T15:11:11;30.90;44.70
61153;DHT22;47030;50.732;4.286;2022-07-23T15:13:38;31.00;45.60
61153;DHT22;47030;50.732;4.286;2022-07-23T15:16:04;30.80;44.70
61153;DHT22;47030;50.732;4.286;2022-07-23T15:18:30;30.50;44.90
61153;DHT22;47030;50.732;4.286;2022-07-23T15:20:56;30.30;45.30
61153;DHT22;47030;50.732;4.286;2022-07-23T15:23:22;30.10;45.80
61153;DHT22;47030;50.732;4.286;2022-07-23T15:25:48;30.00;46.00
61153;DHT22;47030;50.732;4.286;2022-07-23T15:28:14;30.00;46.00
61153;DHT22;47030;50.732;4.286;2022-07-23T15:30:40;29.70;47.10
61153;DHT22;47030;50.732;4.286;2022-07-23T15:33:07;29.80;47.20
61153;DHT22;47030;50.732;4.286;2022-07-23T15:35:33;29.70;47.30
61153;DHT22;47030;50.732;4.286;2022-07-23T15:37:59;29.50;47.70
61153;DHT22;47030;50.732;4.286;2022-07-23T15:40:24;29.40;48.80
61153;DHT22;47030;50.732;4.286;2022-07-23T15:42:51;29.10;48.80
61153;DHT22;47030;50.732;4.286;2022-07-23T15:45:17;28.90;48.70
61153;DHT22;47030;50.732;4.286;2022-07-23T15:47:42;28.70;48.80
61153;DHT22;47030;50.732;4.286;2022-07-23T15:50:08;28.80;49.10
61153;DHT22;47030;50.732;4.286;2022-07-23T15:52:35;29.10;49.40
61153;DHT22;47030;50.732;4.286;2022-07-23T15:55:01;29.20;48.00
61153;DHT22;47030;50.732;4.286;2022-07-23T15:57:27;29.30;48.80
61153;DHT22;47030;50.732;4.286;2022-07-23T15:59:53;29.40;49.30
61153;DHT22;47030;50.732;4.286;2022-07-23T16:02:22;29.50;48.20
61153;DHT22;47030;50.732;4.286;2022-07-23T16:04:47;29.60;47.70
61153;DHT22;47030;50.732;4.286;2022-07-23T16:07:13;29.60;46.60
61153;DHT22;47030;50.732;4.286;2022-07-23T16:09:39;29.60;48.30